createdAt,value
2023-02-11T00:01:13.688Z,4.50
2023-02-11T00:03:40.967Z,4.50
2023-02-11T00:06:11.636Z,4.50
2023-02-11T00:08:39.603Z,4.50
2023-02-11T00:11:07.929Z,4.60
2023-02-11T00:13:35.614Z,4.70
2023-02-11T00:16:16.981Z,4.60
2023-02-11T00:18:45.388Z,4.50
2023-02-11T00:21:18.892Z,4.50
2023-02-11T00:23:46.728Z,4.50
2023-02-11T00:26:23.685Z,4.50
2023-02-11T00:28:51.699Z,4.50
2023-02-11T00:31:21.158Z,4.50
2023-02-11T00:33:48.825Z,4.50
2023-02-11T00:36:18.968Z,4.50
2023-02-11T00:38:47.691Z,4.40
2023-02-11T00:41:15.745Z,4.40
2023-02-11T00:43:42.987Z,4.50
2023-02-11T00:46:10.950Z,4.50
2023-02-11T00:48:38.344Z,4.50
2023-02-11T00:51:05.961Z,4.50
2023-02-11T00:53:34.028Z,4.50
2023-02-11T00:56:01.371Z,4.50
2023-02-11T00:58:31.497Z,4.50
2023-02-11T01:00:59.149Z,4.60
2023-02-11T01:03:26.945Z,4.60
2023-02-11T01:05:54.416Z,4.70
2023-02-11T01:08:21.782Z,4.70
2023-02-11T01:10:59.878Z,4.70
2023-02-11T01:13:28.183Z,4.80
2023-02-11T01:15:56.474Z,4.70
2023-02-11T01:18:24.475Z,4.80
2023-02-11T01:20:52.834Z,4.80
2023-02-11T01:23:20.531Z,4.70
2023-02-11T01:25:48.433Z,4.80
2023-02-11T01:28:28.911Z,4.70
2023-02-11T01:30:57.117Z,4.70
2023-02-11T01:33:25.336Z,4.80
2023-02-11T01:35:53.099Z,4.80
2023-02-11T01:38:26.360Z,4.90
2023-02-11T01:41:03.105Z,4.90
2023-02-11T01:43:39.684Z,4.80
2023-02-11T01:46:18.308Z,4.80
2023-02-11T01:48:49.004Z,4.80
2023-02-11T01:51:16.318Z,4.70
2023-02-11T01:54:03.273Z,4.80
2023-02-11T01:56:50.166Z,4.80
2023-02-11T01:59:32.350Z,4.80
2023-02-11T02:02:06.005Z,4.80
2023-02-11T02:04:39.092Z,4.80
2023-02-11T02:07:12.141Z,4.80
2023-02-11T02:09:44.644Z,4.80
2023-02-11T02:12:11.965Z,4.80
2023-02-11T02:14:43.415Z,4.80
2023-02-11T02:17:19.039Z,4.90
2023-02-11T02:20:18.786Z,4.80
2023-02-11T02:23:25.417Z,4.70
2023-02-11T02:26:20.057Z,4.80
2023-02-11T02:29:15.445Z,4.90
2023-02-11T02:31:54.897Z,4.80
2023-02-11T02:34:42.251Z,4.80
2023-02-11T02:37:27.903Z,4.80
2023-02-11T02:39:57.335Z,4.90
2023-02-11T02:42:27.660Z,4.90
2023-02-11T02:44:56.449Z,4.80
2023-02-11T02:47:23.605Z,4.90
2023-02-11T02:49:50.841Z,4.90
2023-02-11T02:52:47.678Z,4.80
2023-02-11T02:55:36.770Z,4.80
2023-02-11T02:58:37.827Z,4.80
2023-02-11T03:01:24.597Z,4.70
2023-02-11T03:04:12.533Z,4.80
2023-02-11T03:06:55.588Z,4.80
2023-02-11T03:09:45.248Z,4.80
2023-02-11T03:12:13.816Z,4.80
2023-02-11T03:14:42.198Z,4.80
2023-02-11T03:17:10.777Z,4.80
2023-02-11T03:19:41.448Z,4.80
2023-02-11T03:22:17.286Z,4.70
2023-02-11T03:24:45.294Z,4.80
2023-02-11T03:27:26.435Z,4.80
2023-02-11T03:30:05.690Z,4.80
2023-02-11T03:32:38.485Z,4.90
2023-02-11T03:35:21.188Z,4.90
2023-02-11T03:38:00.727Z,4.90
2023-02-11T03:40:35.601Z,4.90
2023-02-11T03:43:17.331Z,5.00
2023-02-11T03:45:46.787Z,4.90
2023-02-11T03:48:28.116Z,5.00
2023-02-11T03:50:57.344Z,5.00
2023-02-11T03:53:24.579Z,5.00
2023-02-11T03:55:54.307Z,5.00
2023-02-11T03:58:21.708Z,4.90
2023-02-11T04:00:49.886Z,4.90
2023-02-11T04:03:17.235Z,4.90
2023-02-11T04:05:44.929Z,4.90
2023-02-11T04:08:12.196Z,5.00
2023-02-11T04:10:39.570Z,5.00
2023-02-11T04:13:06.938Z,4.90
2023-02-11T04:15:34.263Z,4.90
2023-02-11T04:18:02.184Z,5.00
2023-02-11T04:20:29.996Z,4.90
2023-02-11T04:22:57.360Z,5.00
2023-02-11T04:25:26.430Z,5.00
2023-02-11T04:27:53.647Z,5.10
2023-02-11T04:30:20.927Z,5.10
2023-02-11T04:32:48.118Z,5.10
2023-02-11T04:35:16.383Z,5.10
2023-02-11T04:37:43.574Z,5.10
2023-02-11T04:40:11.190Z,5.10
2023-02-11T04:42:38.426Z,5.10
2023-02-11T04:45:07.328Z,5.00
2023-02-11T04:47:34.883Z,4.90
2023-02-11T04:50:02.055Z,4.90
2023-02-11T04:52:29.309Z,5.00
2023-02-11T04:54:56.549Z,5.00
2023-02-11T04:57:23.755Z,5.10
2023-02-11T04:59:51.051Z,5.10
2023-02-11T05:02:18.344Z,5.10
2023-02-11T05:04:45.634Z,5.10
2023-02-11T05:07:12.837Z,5.10
2023-02-11T05:09:40.062Z,5.10
2023-02-11T05:12:07.622Z,5.10
2023-02-11T05:14:35.052Z,5.10
2023-02-11T05:17:02.231Z,5.30
2023-02-11T05:19:30.243Z,5.20
2023-02-11T05:22:02.899Z,5.30
2023-02-11T05:24:32.557Z,5.30
2023-02-11T05:27:00.417Z,5.30
2023-02-11T05:29:27.884Z,5.30
2023-02-11T05:31:55.088Z,5.30
2023-02-11T05:34:22.243Z,5.40
2023-02-11T05:36:49.491Z,5.40
2023-02-11T05:39:16.683Z,5.40
2023-02-11T05:41:43.983Z,5.40
2023-02-11T05:44:11.416Z,5.40
2023-02-11T05:46:38.606Z,5.40
2023-02-11T05:49:05.841Z,5.50
2023-02-11T05:51:33.055Z,5.50
2023-02-11T05:54:00.196Z,5.50
2023-02-11T05:56:27.442Z,5.50
2023-02-11T05:58:54.629Z,5.50
2023-02-11T06:01:21.760Z,5.50
2023-02-11T06:03:50.234Z,5.50
2023-02-11T06:06:17.830Z,5.40
2023-02-11T06:08:45.047Z,5.50
2023-02-11T06:11:15.356Z,5.50
2023-02-11T06:13:42.488Z,5.50
2023-02-11T06:16:09.903Z,5.40
2023-02-11T06:18:37.200Z,5.40
2023-02-11T06:21:08.800Z,5.50
2023-02-11T06:23:36.488Z,5.40
2023-02-11T06:26:09.262Z,5.50
2023-02-11T06:28:38.767Z,5.40
2023-02-11T06:31:08.221Z,5.40
2023-02-11T06:33:36.630Z,5.50
2023-02-11T06:36:05.677Z,5.40
2023-02-11T06:38:32.890Z,5.40
2023-02-11T06:41:00.129Z,5.50
2023-02-11T06:43:27.478Z,5.50
2023-02-11T06:45:55.579Z,5.50
2023-02-11T06:48:23.694Z,5.50
2023-02-11T06:50:50.945Z,5.60
2023-02-11T06:53:18.340Z,5.60
2023-02-11T06:55:45.536Z,5.50
2023-02-11T06:58:12.787Z,5.50
2023-02-11T07:00:40.380Z,5.60
2023-02-11T07:03:07.569Z,5.50
2023-02-11T07:05:35.547Z,5.50
2023-02-11T07:08:02.666Z,5.60
2023-02-11T07:10:30.195Z,5.60
2023-02-11T07:12:58.829Z,5.60
2023-02-11T07:15:27.652Z,5.70
2023-02-11T07:17:54.835Z,5.60
2023-02-11T07:20:31.412Z,5.60
2023-02-11T07:23:00.324Z,5.70
2023-02-11T07:25:31.017Z,5.70
2023-02-11T07:28:00.839Z,5.70
2023-02-11T07:30:28.115Z,5.70
2023-02-11T07:32:56.736Z,5.70
2023-02-11T07:35:32.733Z,5.80
2023-02-11T07:38:00.265Z,5.90
2023-02-11T07:40:27.718Z,5.80
2023-02-11T07:42:57.934Z,5.90
2023-02-11T07:45:35.936Z,5.90
2023-02-11T07:48:03.229Z,5.90
2023-02-11T07:50:34.885Z,5.90
2023-02-11T07:53:04.193Z,5.80
2023-02-11T07:55:31.543Z,5.80
2023-02-11T07:57:59.010Z,5.80
2023-02-11T08:00:27.216Z,5.90
2023-02-11T08:02:55.467Z,5.90
2023-02-11T08:05:23.303Z,5.90
2023-02-11T08:07:54.677Z,5.90
2023-02-11T08:10:24.450Z,5.90
2023-02-11T08:12:51.844Z,5.90
2023-02-11T08:15:19.177Z,5.90
2023-02-11T08:17:47.854Z,5.90
2023-02-11T08:20:15.732Z,6.00
2023-02-11T08:22:43.165Z,5.90
2023-02-11T08:25:17.692Z,5.90
2023-02-11T08:27:45.189Z,5.90
2023-02-11T08:30:13.353Z,6.00
2023-02-11T08:32:41.020Z,6.00
2023-02-11T08:35:08.809Z,6.00
2023-02-11T08:37:36.265Z,6.00
2023-02-11T08:40:04.173Z,6.10
2023-02-11T08:42:43.645Z,6.10
2023-02-11T08:45:11.198Z,6.10
2023-02-11T08:47:39.535Z,6.10
2023-02-11T08:50:09.713Z,6.20
2023-02-11T08:52:37.229Z,6.20
2023-02-11T08:55:04.902Z,6.20
2023-02-11T08:57:32.400Z,6.20
2023-02-11T09:00:01.144Z,6.20
2023-02-11T09:02:28.961Z,6.20
2023-02-11T09:04:59.523Z,6.30
2023-02-11T09:07:31.570Z,6.20
2023-02-11T09:09:59.048Z,6.30
2023-02-11T09:12:29.887Z,6.30
2023-02-11T09:15:07.625Z,6.30
2023-02-11T09:20:24.758Z,6.30
2023-02-11T09:22:53.795Z,6.20
2023-02-11T09:25:21.171Z,6.20
2023-02-11T09:27:48.723Z,6.20
2023-02-11T09:30:16.007Z,6.30
2023-02-11T09:32:43.235Z,6.30
2023-02-11T09:35:10.594Z,6.30
2023-02-11T09:37:37.966Z,6.30
2023-02-11T09:40:06.042Z,6.30
2023-02-11T09:43:14.053Z,6.30
2023-02-11T09:45:41.297Z,6.30
2023-02-11T09:48:20.412Z,6.40
2023-02-11T09:50:51.843Z,6.40
2023-02-11T09:53:26.012Z,6.40
2023-02-11T09:55:56.247Z,6.50
2023-02-11T09:58:23.416Z,6.50
2023-02-11T10:01:29.355Z,6.50
2023-02-11T10:03:56.623Z,6.50
2023-02-11T10:06:47.110Z,6.50
2023-02-11T10:09:34.361Z,6.50
2023-02-11T10:12:10.384Z,6.50
2023-02-11T10:14:49.564Z,6.50
2023-02-11T10:17:44.339Z,6.60
2023-02-11T10:20:33.721Z,6.60
2023-02-11T10:23:08.667Z,6.60
2023-02-11T10:25:45.607Z,6.60
2023-02-11T10:28:19.927Z,6.60
2023-02-11T10:30:59.824Z,6.60
2023-02-11T10:33:32.731Z,6.70
2023-02-11T10:36:00.617Z,6.80
2023-02-11T10:38:28.409Z,6.90
2023-02-11T10:40:55.601Z,6.90
2023-02-11T10:43:27.685Z,7.00
2023-02-11T10:45:56.983Z,7.00
2023-02-11T10:48:36.275Z,7.00
2023-02-11T10:51:15.729Z,7.00
2023-02-11T10:53:43.361Z,7.00
2023-02-11T10:56:31.220Z,7.00
2023-02-11T10:59:00.211Z,7.10
2023-02-11T11:01:47.639Z,7.10
2023-02-11T11:04:27.474Z,7.00
2023-02-11T11:06:54.929Z,7.10
2023-02-11T11:09:30.935Z,7.10
2023-02-11T11:11:58.307Z,7.10
2023-02-11T11:14:29.445Z,7.20
2023-02-11T11:17:00.897Z,7.20
2023-02-11T11:19:52.823Z,7.20
2023-02-11T11:22:22.948Z,7.20
2023-02-11T11:24:54.620Z,7.20
2023-02-11T11:27:25.777Z,7.20
2023-02-11T11:29:56.228Z,7.20
2023-02-11T11:32:32.751Z,7.20
2023-02-11T11:35:06.164Z,7.20
2023-02-11T11:37:38.835Z,7.30
2023-02-11T11:40:11.081Z,7.20
2023-02-11T11:42:40.165Z,7.30
2023-02-11T11:45:17.733Z,7.30
2023-02-11T11:47:54.805Z,7.40
2023-02-11T11:50:34.208Z,7.40
2023-02-11T11:53:05.211Z,7.50
2023-02-11T11:55:39.146Z,7.80
2023-02-11T11:58:31.889Z,7.90
2023-02-11T12:00:59.152Z,7.90
2023-02-11T12:04:03.034Z,7.90
2023-02-11T12:06:41.336Z,7.90
2023-02-11T12:09:45.737Z,8.00
2023-02-11T12:12:35.766Z,8.00
2023-02-11T12:15:41.570Z,8.10
2023-02-11T12:18:17.584Z,8.20
2023-02-11T12:21:10.768Z,8.10
2023-02-11T12:24:01.630Z,8.10
2023-02-11T12:26:40.961Z,8.20
2023-02-11T12:29:24.038Z,8.30
2023-02-11T12:32:10.318Z,8.40
2023-02-11T12:34:45.016Z,8.50
2023-02-11T12:37:36.496Z,8.60
2023-02-11T12:40:28.831Z,8.60
2023-02-11T12:43:14.191Z,8.60
2023-02-11T12:45:50.358Z,8.70
2023-02-11T12:48:48.146Z,8.80
2023-02-11T12:51:36.595Z,8.80
2023-02-11T12:54:05.885Z,8.80
2023-02-11T12:56:48.012Z,8.90
2023-02-11T12:59:28.444Z,8.90
2023-02-11T13:01:58.082Z,9.00
2023-02-11T13:04:39.793Z,9.00
2023-02-11T13:07:23.882Z,9.00
2023-02-11T13:10:05.325Z,9.20
2023-02-11T13:12:52.109Z,9.10
2023-02-11T13:15:19.382Z,9.00
2023-02-11T13:18:01.383Z,9.00
2023-02-11T13:20:43.519Z,9.00
2023-02-11T13:23:23.603Z,9.00
2023-02-11T13:26:05.540Z,9.10
2023-02-11T13:28:36.916Z,9.00
2023-02-11T13:31:07.443Z,9.00
2023-02-11T13:33:36.945Z,9.00
2023-02-11T13:36:04.826Z,8.90
2023-02-11T13:38:32.994Z,9.10
2023-02-11T13:41:21.471Z,9.20
2023-02-11T13:44:09.053Z,9.10
2023-02-11T13:46:54.444Z,9.00
2023-02-11T13:49:35.763Z,9.00
2023-02-11T13:52:06.757Z,9.00
2023-02-11T13:54:37.964Z,9.00
2023-02-11T13:57:20.561Z,8.90
2023-02-11T13:59:51.297Z,8.90
2023-02-11T14:02:56.483Z,8.90
2023-02-11T14:05:52.337Z,8.80
2023-02-11T14:08:41.409Z,8.70
2023-02-11T14:11:23.940Z,8.70
2023-02-11T14:13:51.232Z,8.70
2023-02-11T14:16:37.037Z,8.70
2023-02-11T14:19:06.563Z,8.70
2023-02-11T14:21:43.550Z,8.70
2023-02-11T14:24:14.583Z,8.60
2023-02-11T14:26:47.902Z,8.60
2023-02-11T14:29:20.652Z,8.70
2023-02-11T14:32:06.045Z,8.60
2023-02-11T14:34:42.430Z,8.60
2023-02-11T14:37:40.228Z,8.70
2023-02-11T14:40:22.796Z,8.70
2023-02-11T14:42:52.339Z,8.60
2023-02-11T14:45:26.001Z,8.60
2023-02-11T14:48:00.585Z,8.60
2023-02-11T14:50:47.062Z,8.70
2023-02-11T14:53:18.387Z,8.60
2023-02-11T14:55:53.926Z,8.60
2023-02-11T14:58:22.771Z,8.60
2023-02-11T15:00:51.826Z,8.60
2023-02-11T15:03:56.816Z,8.60
2023-02-11T15:06:32.228Z,8.60
2023-02-11T15:09:05.802Z,8.60
2023-02-11T15:11:40.931Z,8.60
2023-02-11T15:14:15.980Z,8.60
2023-02-11T15:16:45.689Z,8.60
2023-02-11T15:19:34.539Z,8.60
2023-02-11T15:22:07.294Z,8.50
2023-02-11T15:24:35.937Z,8.50
2023-02-11T15:27:19.400Z,8.50
2023-02-11T15:29:50.833Z,8.50
2023-02-11T15:32:19.873Z,8.50
2023-02-11T15:34:48.887Z,8.50
2023-02-11T15:37:25.129Z,8.50
2023-02-11T15:39:54.488Z,8.50
2023-02-11T15:42:35.970Z,8.40
2023-02-11T15:45:14.361Z,8.50
2023-02-11T15:47:49.451Z,8.50
2023-02-11T15:50:31.570Z,8.50
2023-02-11T15:53:02.854Z,8.40
2023-02-11T15:55:30.547Z,8.40
2023-02-11T15:58:02.670Z,8.40
2023-02-11T16:00:38.560Z,8.40
2023-02-11T16:03:05.974Z,8.40
2023-02-11T16:05:38.134Z,8.40
2023-02-11T16:08:29.493Z,8.40
2023-02-11T16:11:03.541Z,8.40
2023-02-11T16:13:34.858Z,8.40
2023-02-11T16:16:18.332Z,8.50
2023-02-11T16:19:03.459Z,8.50
2023-02-11T16:21:45.430Z,8.40
2023-02-11T16:24:28.283Z,8.50
2023-02-11T16:26:59.744Z,8.40
2023-02-11T16:29:33.618Z,8.50
2023-02-11T16:32:30.232Z,8.50
2023-02-11T16:35:00.994Z,8.50
2023-02-11T16:37:28.411Z,8.40
2023-02-11T16:39:56.645Z,8.40
2023-02-11T16:42:24.789Z,8.40
2023-02-11T16:44:52.097Z,8.40
2023-02-11T16:47:28.218Z,8.40
2023-02-11T16:49:56.500Z,8.40
2023-02-11T16:52:24.819Z,8.40
2023-02-11T16:54:52.184Z,8.40
2023-02-11T16:57:29.913Z,8.30
2023-02-11T16:59:59.236Z,8.30
2023-02-11T17:02:31.320Z,8.40
2023-02-11T17:05:00.954Z,8.40
2023-02-11T17:07:28.970Z,8.30
2023-02-11T17:09:56.736Z,8.30
2023-02-11T17:12:27.239Z,8.30
2023-02-11T17:14:57.824Z,8.30
2023-02-11T17:17:25.083Z,8.40
2023-02-11T17:19:53.157Z,8.40
2023-02-11T17:22:20.565Z,8.40
2023-02-11T17:24:47.859Z,8.30
2023-02-11T17:27:15.607Z,8.40
2023-02-11T17:29:42.906Z,8.30
2023-02-11T17:32:10.170Z,8.30
2023-02-11T17:34:37.471Z,8.30
2023-02-11T17:37:09.253Z,8.30
2023-02-11T17:39:37.412Z,8.30
2023-02-11T17:42:06.174Z,8.30
2023-02-11T17:44:33.737Z,8.30
2023-02-11T17:47:01.031Z,8.40
2023-02-11T17:49:28.321Z,8.30
2023-02-11T17:51:55.749Z,8.30
2023-02-11T17:54:23.266Z,8.30
2023-02-11T17:56:51.021Z,8.30
2023-02-11T17:59:18.380Z,8.30
2023-02-11T18:01:46.045Z,8.30
2023-02-11T18:04:16.651Z,8.30
2023-02-11T18:06:44.719Z,8.30
2023-02-11T18:09:12.614Z,8.30
2023-02-11T18:11:41.028Z,8.30
2023-02-11T18:14:10.257Z,8.30
2023-02-11T18:16:39.876Z,8.30
2023-02-11T18:19:07.789Z,8.30
2023-02-11T18:21:35.490Z,8.30
2023-02-11T18:24:06.795Z,8.30
2023-02-11T18:26:35.075Z,8.30
2023-02-11T18:29:04.039Z,8.30
2023-02-11T18:31:31.750Z,8.30
2023-02-11T18:33:59.193Z,8.30
2023-02-11T18:36:26.840Z,8.30
2023-02-11T18:38:54.472Z,8.30
2023-02-11T18:41:21.915Z,8.30
2023-02-11T18:43:49.344Z,8.20
2023-02-11T18:46:16.926Z,8.20
2023-02-11T18:48:45.322Z,8.20
2023-02-11T18:51:18.881Z,8.00
2023-02-11T18:53:46.211Z,8.00
2023-02-11T18:56:16.360Z,8.00
2023-02-11T18:58:43.721Z,8.10
2023-02-11T19:01:17.195Z,8.10
2023-02-11T19:03:45.686Z,8.10
2023-02-11T19:06:28.508Z,8.10
2023-02-11T19:08:59.919Z,8.10
2023-02-11T19:11:47.286Z,8.20
2023-02-11T19:14:21.352Z,8.10
2023-02-11T19:16:50.795Z,8.10
2023-02-11T19:19:19.607Z,8.10
2023-02-11T19:21:47.594Z,8.00
2023-02-11T19:24:19.005Z,8.00
2023-02-11T19:26:48.130Z,7.90
2023-02-11T19:29:15.707Z,7.90
2023-02-11T19:31:44.077Z,7.80
2023-02-11T19:34:14.282Z,7.80
2023-02-11T19:36:42.001Z,7.80
2023-02-11T19:39:10.271Z,7.70
2023-02-11T19:41:37.922Z,7.70
2023-02-11T19:44:06.251Z,7.70
2023-02-11T19:46:36.648Z,7.60
2023-02-11T19:49:05.144Z,7.60
2023-02-11T19:51:33.961Z,7.60
2023-02-11T19:54:01.901Z,7.50
2023-02-11T19:56:29.397Z,7.50
2023-02-11T19:58:57.138Z,7.60
2023-02-11T20:01:26.199Z,7.50
2023-02-11T20:03:55.682Z,7.40
2023-02-11T20:06:26.098Z,7.40
2023-02-11T20:08:59.031Z,7.40
2023-02-11T20:11:28.441Z,7.30
2023-02-11T20:13:55.968Z,7.30
2023-02-11T20:16:40.712Z,7.30
2023-02-11T20:19:18.401Z,7.30
2023-02-11T20:21:48.090Z,7.40
2023-02-11T20:24:18.821Z,7.40
2023-02-11T20:26:48.682Z,7.40
2023-02-11T20:29:17.703Z,7.40
2023-02-11T20:31:45.415Z,7.50
2023-02-11T20:34:13.295Z,7.60
2023-02-11T20:36:40.992Z,7.70
2023-02-11T20:39:10.756Z,7.60
2023-02-11T20:41:41.806Z,7.70
2023-02-11T20:44:10.653Z,7.60
2023-02-11T20:46:40.668Z,7.60
2023-02-11T20:49:10.059Z,7.60
2023-02-11T20:51:37.547Z,7.70
2023-02-11T20:54:06.457Z,7.70
2023-02-11T20:56:36.954Z,7.70
2023-02-11T20:59:05.956Z,7.60
2023-02-11T21:01:36.641Z,7.60
2023-02-11T21:04:11.622Z,7.50
2023-02-11T21:06:42.830Z,7.50
2023-02-11T21:09:14.756Z,7.40
2023-02-11T21:11:42.602Z,7.30
2023-02-11T21:14:10.585Z,7.30
2023-02-11T21:16:38.010Z,7.20
2023-02-11T21:19:05.726Z,7.20
2023-02-11T21:21:35.425Z,7.10
2023-02-11T21:24:02.793Z,7.10
2023-02-11T21:26:30.186Z,7.10
2023-02-11T21:28:57.672Z,7.00
2023-02-11T21:31:29.039Z,6.90
2023-02-11T21:33:57.553Z,6.90
2023-02-11T21:36:25.074Z,6.90
2023-02-11T21:38:52.829Z,6.90
2023-02-11T21:41:25.094Z,6.90
2023-02-11T21:43:53.175Z,7.00
2023-02-11T21:46:21.307Z,6.90
2023-02-11T21:48:49.012Z,6.80
2023-02-11T21:51:19.341Z,6.90
2023-02-11T21:53:47.146Z,6.90
2023-02-11T21:56:17.072Z,6.90
2023-02-11T21:58:45.628Z,6.80
2023-02-11T22:01:19.366Z,6.80
2023-02-11T22:03:47.280Z,6.80
2023-02-11T22:06:26.787Z,6.70
2023-02-11T22:08:55.252Z,6.60
2023-02-11T22:11:23.622Z,6.60
2023-02-11T22:13:56.532Z,6.60
2023-02-11T22:16:25.297Z,6.60
2023-02-11T22:18:53.295Z,6.60
2023-02-11T22:21:23.111Z,6.60
2023-02-11T22:23:51.920Z,6.70
2023-02-11T22:26:21.856Z,6.70
2023-02-11T22:28:49.991Z,6.60
2023-02-11T22:31:19.930Z,6.60
2023-02-11T22:33:47.790Z,6.50
2023-02-11T22:36:21.235Z,6.50
2023-02-11T22:38:49.058Z,6.50
2023-02-11T22:41:17.854Z,6.40
2023-02-11T22:43:45.309Z,6.40
2023-02-11T22:46:15.786Z,6.40
2023-02-11T22:48:43.288Z,6.40
2023-02-11T22:51:23.176Z,6.30
2023-02-11T22:54:12.774Z,6.30
2023-02-11T22:56:40.423Z,6.30
2023-02-11T22:59:12.361Z,6.40
2023-02-11T23:01:39.980Z,6.30
2023-02-11T23:04:09.453Z,6.30
2023-02-11T23:06:36.989Z,6.30
2023-02-11T23:09:06.612Z,6.40
2023-02-11T23:11:34.372Z,6.40
2023-02-11T23:14:02.765Z,6.30
2023-02-11T23:16:32.992Z,6.30
2023-02-11T23:19:03.732Z,6.30
2023-02-11T23:21:32.879Z,6.30
2023-02-11T23:24:04.343Z,6.20
2023-02-11T23:26:32.460Z,6.10
2023-02-11T23:29:00.525Z,6.20
2023-02-11T23:31:38.071Z,6.20
2023-02-11T23:34:06.585Z,6.20
2023-02-11T23:36:33.942Z,6.20
2023-02-11T23:39:01.548Z,6.10
2023-02-11T23:41:28.978Z,6.00
2023-02-11T23:43:58.761Z,6.00
2023-02-11T23:46:28.290Z,5.90
2023-02-11T23:48:56.354Z,5.90
2023-02-11T23:51:24.151Z,5.90
2023-02-11T23:53:52.973Z,5.90
2023-02-11T23:56:26.974Z,5.90
2023-02-11T23:58:57.016Z,5.80
